Washington, District of Columbia
Traffic Map
Current Weather Conditions
Washington, District of Columbia
Broken Clouds
Broken Clouds
33°
Feels Like: 25°
Wind Chill: 25° Ceiling: 13000
Heat Index: 33° Visibility: 10mi
Dew Point: 17° Wind: 10mph
Humidity: 52% Direction: 350° (N)
Pressure: 30.11in Gusts: 0mph
Raw Report DataKDCA 100952Z 35009KT 10SM BKN130 01/M08 A3011 RMK AO2 SLP194 T00061083
Traffic Incident Summary
Active as of:
Severity:
Category:
InformationThere was an issue retrieving the traffic information for this location. Please try a different location or try again shortly.
Advertisements